Terminal Aerodrome Forecast
Issued by NWS Upton, NY

Home | Current Version | Previous Version | Text Only | Print | Product List | Glossary On
Versions: 1 2 3 4 5 6 7 8 9 10 11 12 13 14 15 16 17 18 19 20 21 22 23 24 25 26
000
FTUS41 KOKX 311100
TAFEWR
TAF
KEWR 311123Z 3112/0118 31018G28KT P6SM SKC
     FM312100 30015G22KT P6SM SKC
     FM010200 28008KT P6SM SCT200
     FM011500 25008KT P6SM BKN150=

USA.gov is the U.S. government's official web portal to all federal, state and local government web resources and services.